createdAt,value
2023-03-29T00:01:10.958Z,4.45
2023-03-29T00:04:02.441Z,3.65
2023-03-29T00:06:33.269Z,3.75
2023-03-29T00:09:05.280Z,4.15
2023-03-29T00:11:33.955Z,4.10
2023-03-29T00:14:01.816Z,3.90
2023-03-29T00:16:31.137Z,4.13
2023-03-29T00:18:59.582Z,4.85
2023-03-29T00:21:28.243Z,4.15
2023-03-29T00:23:57.106Z,4.65
2023-03-29T00:26:25.657Z,4.25
2023-03-29T00:28:54.327Z,3.80
2023-03-29T00:31:23.022Z,4.30
2023-03-29T00:33:51.715Z,3.60
2023-03-29T00:36:22.302Z,3.58
2023-03-29T00:38:50.551Z,3.72
2023-03-29T00:41:19.160Z,4.07
2023-03-29T00:44:01.026Z,3.60
2023-03-29T00:46:31.288Z,3.63
2023-03-29T00:49:03.968Z,3.83
2023-03-29T00:51:34.486Z,4.05
2023-03-29T00:54:04.357Z,3.53
2023-03-29T00:56:37.217Z,3.40
2023-03-29T00:59:08.020Z,3.33
2023-03-29T01:01:42.322Z,2.85
2023-03-29T01:04:18.259Z,3.70
2023-03-29T01:06:50.429Z,4.03
2023-03-29T01:09:21.836Z,3.97
2023-03-29T01:11:54.393Z,3.45
2023-03-29T01:14:22.679Z,4.10
2023-03-29T01:16:52.055Z,3.78
2023-03-29T01:19:24.461Z,3.13
2023-03-29T01:22:14.866Z,3.03
2023-03-29T01:24:50.864Z,3.60
2023-03-29T01:27:22.939Z,4.43
2023-03-29T01:30:05.687Z,3.20
2023-03-29T01:32:36.098Z,3.10
2023-03-29T01:35:14.172Z,3.65
2023-03-29T01:37:48.615Z,3.60
2023-03-29T01:40:17.256Z,4.40
2023-03-29T01:43:07.028Z,4.20
2023-03-29T01:45:35.870Z,4.30
2023-03-29T01:48:13.285Z,4.20
2023-03-29T01:50:45.775Z,4.30
2023-03-29T01:53:14.589Z,3.22
2023-03-29T01:55:45.560Z,4.63
2023-03-29T01:58:15.544Z,7.25
2023-03-29T02:00:44.100Z,7.38
2023-03-29T02:03:15.094Z,6.85
2023-03-29T02:05:44.166Z,4.53
2023-03-29T02:08:13.880Z,3.70
2023-03-29T02:10:42.142Z,3.80
2023-03-29T02:13:12.618Z,4.28
2023-03-29T02:15:40.977Z,4.70
2023-03-29T02:18:09.752Z,4.10
2023-03-29T02:20:40.715Z,5.70
2023-03-29T02:23:15.927Z,7.82
2023-03-29T02:25:45.924Z,6.03
2023-03-29T02:28:14.725Z,5.78
2023-03-29T02:30:57.556Z,5.47
2023-03-29T02:33:45.705Z,6.70
2023-03-29T02:36:22.811Z,6.53
2023-03-29T02:38:53.697Z,4.82
2023-03-29T02:41:23.924Z,4.72
2023-03-29T02:43:53.521Z,5.57
2023-03-29T02:46:22.002Z,6.35
2023-03-29T02:48:52.222Z,5.78
2023-03-29T02:51:24.584Z,6.10
2023-03-29T02:54:00.457Z,7.20
2023-03-29T02:56:28.870Z,6.57
2023-03-29T02:58:57.329Z,6.53
2023-03-29T03:01:26.292Z,6.63
2023-03-29T03:03:55.115Z,6.55
2023-03-29T03:06:24.137Z,7.18
2023-03-29T03:08:52.861Z,6.90
2023-03-29T03:11:21.372Z,6.13
2023-03-29T03:13:50.274Z,6.90
2023-03-29T03:16:18.787Z,6.80
2023-03-29T03:18:48.761Z,8.05
2023-03-29T03:21:17.934Z,7.90
2023-03-29T03:23:47.509Z,9.27
2023-03-29T03:26:16.861Z,11.80
2023-03-29T03:28:46.598Z,13.77
2023-03-29T03:31:33.853Z,16.80
2023-03-29T03:34:32.336Z,14.43
2023-03-29T03:37:02.304Z,13.18
2023-03-29T03:39:34.296Z,12.38
2023-03-29T03:42:07.859Z,13.25
2023-03-29T03:44:40.724Z,13.73
2023-03-29T03:47:38.629Z,24.67
2023-03-29T03:50:36.854Z,29.70
2023-03-29T03:53:05.407Z,21.75
2023-03-29T03:55:58.179Z,17.23
2023-03-29T03:58:32.596Z,20.40
2023-03-29T04:01:01.751Z,20.73
2023-03-29T04:03:41.356Z,21.60
2023-03-29T04:06:14.433Z,14.52
2023-03-29T04:09:02.759Z,13.20
2023-03-29T04:11:38.699Z,12.70
2023-03-29T04:14:08.086Z,9.43
2023-03-29T04:17:04.267Z,7.78
2023-03-29T04:19:47.195Z,7.07
2023-03-29T04:22:16.002Z,6.85
2023-03-29T04:24:45.105Z,7.30
2023-03-29T04:27:31.915Z,8.73
2023-03-29T04:30:03.813Z,13.23
2023-03-29T04:32:52.501Z,13.07
2023-03-29T04:35:21.283Z,14.10
2023-03-29T04:37:51.648Z,14.55
2023-03-29T04:40:22.708Z,15.80
2023-03-29T04:43:11.301Z,12.15
2023-03-29T04:45:48.490Z,13.00
2023-03-29T04:48:32.510Z,12.57
2023-03-29T04:51:01.350Z,14.70
2023-03-29T04:53:29.856Z,15.63
2023-03-29T04:55:59.701Z,17.35
2023-03-29T04:58:56.634Z,18.73
2023-03-29T05:01:25.702Z,15.25
2023-03-29T05:03:59.036Z,14.25
2023-03-29T05:06:36.938Z,13.88
2023-03-29T05:09:09.002Z,15.02
2023-03-29T05:11:51.748Z,11.90
2023-03-29T05:14:22.287Z,12.00
2023-03-29T05:16:50.937Z,12.20
2023-03-29T05:19:21.946Z,12.10
2023-03-29T05:21:51.238Z,10.80
2023-03-29T05:24:23.392Z,10.05
2023-03-29T05:26:57.650Z,9.65
2023-03-29T05:29:27.850Z,10.73
2023-03-29T05:32:09.983Z,13.88
2023-03-29T05:34:39.523Z,10.75
2023-03-29T05:37:08.511Z,12.05
2023-03-29T05:39:49.786Z,16.88
2023-03-29T05:42:22.678Z,24.00
2023-03-29T05:44:57.872Z,10.27
2023-03-29T05:47:28.474Z,10.07
2023-03-29T05:52:43.450Z,5.90
2023-03-29T05:55:11.950Z,5.53
2023-03-29T05:57:41.694Z,8.40
2023-03-29T06:00:23.615Z,4.88
2023-03-29T06:03:06.497Z,5.50
2023-03-29T06:05:42.125Z,7.90
2023-03-29T06:09:10.981Z,7.97
2023-03-29T06:11:52.998Z,10.95
2023-03-29T06:14:35.790Z,4.80
2023-03-29T06:17:19.253Z,4.90
2023-03-29T06:19:48.576Z,4.90
2023-03-29T06:22:19.242Z,5.28
2023-03-29T06:24:47.985Z,7.60
2023-03-29T06:27:25.991Z,5.18
2023-03-29T06:29:54.993Z,4.43
2023-03-29T06:32:23.614Z,4.45
2023-03-29T06:34:58.137Z,7.70
2023-03-29T06:37:32.877Z,4.93
2023-03-29T06:40:21.610Z,5.25
2023-03-29T06:42:57.742Z,5.70
2023-03-29T06:45:45.062Z,4.00
2023-03-29T06:48:32.708Z,3.80
2023-03-29T06:51:01.555Z,4.15
2023-03-29T06:53:32.822Z,5.10
2023-03-29T06:56:09.190Z,4.25
2023-03-29T06:58:43.179Z,4.38
2023-03-29T07:01:28.640Z,3.60
2023-03-29T07:04:10.102Z,4.28
2023-03-29T07:07:01.795Z,4.43
2023-03-29T07:09:33.502Z,18.92
2023-03-29T07:12:38.258Z,16.15
2023-03-29T07:15:08.860Z,24.83
2023-03-29T07:18:01.088Z,8.82
2023-03-29T07:20:30.070Z,7.60
2023-03-29T07:23:07.122Z,7.30
2023-03-29T07:25:36.601Z,5.30
2023-03-29T07:28:06.257Z,6.65
2023-03-29T07:30:35.473Z,4.05
2023-03-29T07:33:14.438Z,4.35
2023-03-29T07:35:55.538Z,6.80
2023-03-29T07:38:25.323Z,6.38
2023-03-29T07:41:00.787Z,5.22
2023-03-29T07:43:38.191Z,5.95
2023-03-29T07:46:10.091Z,4.20
2023-03-29T07:48:39.984Z,4.40
2023-03-29T07:51:11.510Z,3.83
2023-03-29T07:53:45.935Z,3.08
2023-03-29T07:56:31.511Z,4.32
2023-03-29T07:59:12.641Z,4.45
2023-03-29T08:01:44.747Z,5.43
2023-03-29T08:04:33.561Z,3.80
2023-03-29T08:07:16.434Z,3.03
2023-03-29T08:10:21.763Z,2.75
2023-03-29T08:12:56.860Z,2.70
2023-03-29T08:15:35.510Z,2.60
2023-03-29T08:18:05.161Z,5.00
2023-03-29T08:20:33.915Z,1.98
2023-03-29T08:23:05.590Z,4.30
2023-03-29T08:26:00.463Z,3.50
2023-03-29T08:28:29.380Z,3.28
2023-03-29T08:30:57.860Z,3.60
2023-03-29T08:33:26.604Z,2.65
2023-03-29T08:36:17.969Z,3.70
2023-03-29T08:38:47.722Z,3.13
2023-03-29T08:41:37.076Z,2.95
2023-03-29T08:44:40.103Z,2.90
2023-03-29T08:47:29.960Z,2.95
2023-03-29T08:50:00.161Z,3.42
2023-03-29T08:52:46.312Z,4.35
2023-03-29T08:55:40.489Z,2.92
2023-03-29T08:58:35.311Z,4.03
2023-03-29T09:01:06.410Z,2.30
2023-03-29T09:04:16.323Z,2.30
2023-03-29T09:06:54.383Z,2.33
2023-03-29T09:09:32.873Z,3.33
2023-03-29T09:12:09.360Z,3.00
2023-03-29T09:14:48.797Z,1.88
2023-03-29T09:17:32.661Z,2.42
2023-03-29T09:20:27.863Z,12.15
2023-03-29T09:22:57.810Z,7.88
2023-03-29T09:25:36.340Z,9.25
2023-03-29T09:28:14.496Z,3.70
2023-03-29T09:31:16.863Z,11.00
2023-03-29T09:33:52.426Z,15.95
2023-03-29T09:36:43.445Z,10.25
2023-03-29T09:39:16.426Z,16.88
2023-03-29T09:42:04.018Z,51.55
2023-03-29T09:44:38.874Z,18.40
2023-03-29T09:47:23.739Z,19.65
2023-03-29T09:50:02.140Z,18.67
2023-03-29T09:52:31.317Z,30.58
2023-03-29T09:55:15.330Z,8.23
2023-03-29T09:57:54.805Z,14.90
2023-03-29T10:00:23.334Z,8.30
2023-03-29T10:02:53.316Z,19.63
2023-03-29T10:07:59.628Z,22.70
2023-03-29T10:10:34.120Z,12.02
2023-03-29T10:13:06.949Z,3.50
2023-03-29T10:15:35.681Z,5.03
2023-03-29T10:18:13.566Z,13.98
2023-03-29T10:20:43.301Z,4.72
2023-03-29T10:23:18.575Z,5.43
2023-03-29T10:28:17.854Z,3.30
2023-03-29T10:30:52.405Z,11.63
2023-03-29T10:33:24.130Z,8.75
2023-03-29T10:35:52.949Z,3.97
2023-03-29T10:38:24.527Z,9.50
2023-03-29T10:40:54.537Z,5.97
2023-03-29T10:43:32.423Z,9.05
2023-03-29T10:46:11.752Z,10.15
2023-03-29T10:48:46.119Z,5.55
2023-03-29T10:51:15.516Z,10.10
2023-03-29T10:53:43.887Z,7.50
2023-03-29T10:56:18.737Z,2.85
2023-03-29T10:59:17.999Z,3.95
2023-03-29T11:02:04.981Z,3.60
2023-03-29T11:05:00.444Z,3.50
2023-03-29T11:07:31.677Z,2.90
2023-03-29T11:10:04.388Z,4.50
2023-03-29T11:13:10.177Z,2.97
2023-03-29T11:15:51.363Z,3.10
2023-03-29T11:18:59.948Z,3.40
2023-03-29T11:21:31.405Z,3.42
2023-03-29T11:24:17.727Z,3.42
2023-03-29T11:26:58.080Z,5.57
2023-03-29T11:29:27.229Z,4.25
2023-03-29T11:32:10.816Z,4.03
2023-03-29T11:34:57.907Z,2.50
2023-03-29T11:37:26.801Z,2.00
2023-03-29T11:40:05.761Z,2.30
2023-03-29T11:42:39.297Z,2.50
2023-03-29T11:45:17.211Z,4.53
2023-03-29T11:47:47.116Z,3.03
2023-03-29T11:50:19.728Z,2.70
2023-03-29T11:52:54.300Z,2.42
2023-03-29T11:55:27.354Z,2.80
2023-03-29T11:58:13.775Z,3.55
2023-03-29T12:00:56.043Z,3.42
2023-03-29T12:03:24.647Z,3.60
2023-03-29T12:05:59.051Z,6.00
2023-03-29T12:08:35.412Z,5.10
2023-03-29T12:11:22.991Z,3.78
2023-03-29T12:13:57.369Z,3.30
2023-03-29T12:16:34.638Z,4.40
2023-03-29T12:19:22.877Z,7.13
2023-03-29T12:21:58.504Z,7.10
2023-03-29T12:24:36.562Z,4.93
2023-03-29T12:27:26.648Z,4.60
2023-03-29T12:30:34.139Z,6.18
2023-03-29T12:33:15.135Z,3.63
2023-03-29T12:36:35.881Z,5.30
2023-03-29T12:39:27.752Z,3.22
2023-03-29T12:45:44.467Z,3.97
2023-03-29T12:48:19.878Z,3.42
2023-03-29T12:50:52.394Z,2.78
2023-03-29T12:53:39.922Z,4.15
2023-03-29T12:56:12.063Z,5.22
2023-03-29T12:58:40.528Z,10.38
2023-03-29T13:01:33.316Z,7.00
2023-03-29T13:04:02.179Z,5.95
2023-03-29T13:07:04.504Z,9.57
2023-03-29T13:09:54.035Z,4.75
2023-03-29T13:15:17.791Z,4.90
2023-03-29T13:17:46.686Z,5.57
2023-03-29T13:20:46.408Z,4.53
2023-03-29T13:23:36.450Z,4.00
2023-03-29T13:26:14.671Z,9.43
2023-03-29T13:29:13.727Z,6.35
2023-03-29T13:32:12.980Z,4.47
2023-03-29T13:34:48.949Z,4.47
2023-03-29T13:37:34.564Z,4.05
2023-03-29T13:43:01.875Z,7.45
2023-03-29T13:45:33.747Z,10.13
2023-03-29T13:48:29.153Z,11.82
2023-03-29T13:51:10.574Z,15.85
2023-03-29T13:53:44.900Z,52.80
2023-03-29T13:56:20.184Z,40.60
2023-03-29T13:59:03.800Z,5.95
2023-03-29T14:01:54.780Z,5.13
2023-03-29T14:04:27.168Z,14.82
2023-03-29T14:06:57.120Z,18.88
2023-03-29T14:09:33.698Z,7.43
2023-03-29T14:14:32.235Z,6.97
2023-03-29T14:17:01.632Z,24.88
2023-03-29T14:19:38.479Z,18.73
2023-03-29T14:22:16.068Z,22.13
2023-03-29T14:24:52.050Z,6.10
2023-03-29T14:27:22.808Z,8.98
2023-03-29T14:29:53.439Z,5.47
2023-03-29T14:32:30.336Z,6.05
2023-03-29T14:34:59.273Z,5.75
2023-03-29T14:37:29.687Z,16.77
2023-03-29T14:39:59.492Z,32.97
2023-03-29T14:42:30.524Z,13.82
2023-03-29T14:45:06.605Z,24.80
2023-03-29T14:47:37.574Z,11.68
2023-03-29T14:50:17.294Z,12.10
2023-03-29T14:52:47.896Z,16.75
2023-03-29T14:55:23.517Z,11.10
2023-03-29T14:57:55.122Z,8.15
2023-03-29T15:00:49.291Z,7.35
2023-03-29T15:03:26.658Z,20.95
2023-03-29T15:06:05.508Z,9.70
2023-03-29T15:08:57.641Z,14.82
2023-03-29T15:11:36.463Z,22.63
2023-03-29T15:14:14.383Z,32.38
2023-03-29T15:16:44.146Z,13.45
2023-03-29T15:19:18.935Z,19.70
2023-03-29T15:21:58.006Z,8.00
2023-03-29T15:24:31.977Z,11.27
2023-03-29T15:27:18.218Z,14.50
2023-03-29T15:29:47.491Z,19.08
2023-03-29T15:32:37.333Z,21.23
2023-03-29T15:35:21.593Z,39.53
2023-03-29T15:37:50.734Z,60.25
2023-03-29T15:40:25.949Z,37.67
2023-03-29T15:42:55.764Z,18.70
2023-03-29T15:45:26.504Z,21.13
2023-03-29T15:48:28.054Z,14.80
2023-03-29T15:51:01.473Z,14.35
2023-03-29T15:53:31.165Z,24.20
2023-03-29T15:56:02.406Z,24.58
2023-03-29T15:58:32.689Z,32.42
2023-03-29T16:01:11.237Z,26.55
2023-03-29T16:03:40.338Z,35.67
2023-03-29T16:06:12.006Z,27.50
2023-03-29T16:08:41.549Z,31.92
2023-03-29T16:11:10.312Z,29.08
2023-03-29T16:13:38.693Z,28.13
2023-03-29T16:16:07.957Z,17.88
2023-03-29T16:18:36.646Z,26.25
2023-03-29T16:21:05.527Z,30.40
2023-03-29T16:23:33.835Z,15.45
2023-03-29T16:26:02.639Z,19.92
2023-03-29T16:28:31.093Z,25.20
2023-03-29T16:31:00.090Z,25.48
2023-03-29T16:33:28.549Z,29.27
2023-03-29T16:35:57.551Z,19.88
2023-03-29T16:38:26.013Z,19.35
2023-03-29T16:40:55.465Z,17.13
2023-03-29T16:43:23.852Z,20.20
2023-03-29T16:45:52.739Z,12.75
2023-03-29T16:48:21.011Z,14.23
2023-03-29T16:50:50.455Z,18.20
2023-03-29T16:53:20.242Z,31.17
2023-03-29T16:55:50.202Z,18.98
2023-03-29T16:58:18.969Z,20.95
2023-03-29T17:00:48.576Z,30.75
2023-03-29T17:03:17.131Z,47.78
2023-03-29T17:05:50.288Z,39.42
2023-03-29T17:08:19.037Z,45.45
2023-03-29T17:10:52.324Z,59.70
2023-03-29T17:13:21.338Z,71.90
2023-03-29T17:15:52.204Z,52.83
2023-03-29T17:18:21.306Z,43.03
2023-03-29T17:20:55.300Z,30.85
2023-03-29T17:23:24.297Z,31.67
2023-03-29T17:25:54.840Z,38.03
2023-03-29T17:28:24.666Z,36.17
2023-03-29T17:30:53.340Z,46.40
2023-03-29T17:33:22.865Z,39.70
2023-03-29T17:35:51.608Z,30.23
2023-03-29T17:38:20.072Z,18.83
2023-03-29T17:40:55.366Z,23.90
2023-03-29T17:43:23.860Z,14.80
2023-03-29T17:45:55.460Z,18.02
2023-03-29T17:48:24.257Z,18.50
2023-03-29T17:50:56.115Z,15.70
2023-03-29T17:53:24.778Z,16.25
2023-03-29T17:55:55.982Z,11.77
2023-03-29T17:58:24.232Z,12.55
2023-03-29T18:00:52.973Z,12.18
2023-03-29T18:03:21.866Z,17.02
2023-03-29T18:05:55.587Z,17.83
2023-03-29T18:08:27.074Z,41.60
2023-03-29T18:13:41.491Z,22.45
2023-03-29T18:16:20.548Z,21.23
2023-03-29T18:18:51.924Z,42.42
2023-03-29T18:21:25.650Z,112.18
2023-03-29T18:24:00.960Z,102.63
2023-03-29T18:26:30.643Z,62.85
2023-03-29T18:28:58.915Z,77.72
2023-03-29T18:31:35.301Z,50.15
2023-03-29T18:34:04.537Z,31.15
2023-03-29T18:36:33.055Z,40.88
2023-03-29T18:39:05.912Z,23.67
2023-03-29T18:41:37.354Z,21.80
2023-03-29T18:44:09.324Z,22.77
2023-03-29T18:46:39.912Z,13.82
2023-03-29T18:49:08.318Z,24.02
2023-03-29T18:51:36.907Z,26.60
2023-03-29T18:54:06.972Z,16.40
2023-03-29T18:56:36.050Z,22.65
2023-03-29T18:59:06.430Z,12.38
2023-03-29T19:01:35.555Z,13.82
2023-03-29T19:04:04.166Z,36.80
2023-03-29T19:06:33.056Z,22.60
2023-03-29T19:09:02.333Z,12.15
2023-03-29T19:11:33.455Z,43.53
2023-03-29T19:14:06.005Z,39.60
2023-03-29T19:16:36.253Z,13.90
2023-03-29T19:19:06.741Z,21.50
2023-03-29T19:21:50.312Z,16.25
2023-03-29T19:24:18.947Z,24.08
2023-03-29T19:26:51.204Z,14.65
2023-03-29T19:29:26.091Z,18.52
2023-03-29T19:31:57.030Z,17.15
2023-03-29T19:34:28.115Z,14.00
2023-03-29T19:36:58.588Z,18.98
2023-03-29T19:39:29.467Z,24.67
2023-03-29T19:41:58.331Z,18.55
2023-03-29T19:44:28.237Z,16.98
2023-03-29T19:47:05.895Z,10.15
2023-03-29T19:49:36.764Z,22.95
2023-03-29T19:52:06.508Z,12.52
2023-03-29T19:54:35.342Z,55.25
2023-03-29T19:57:06.900Z,15.98
2023-03-29T19:59:43.120Z,44.30
2023-03-29T20:02:13.572Z,89.72
2023-03-29T20:04:41.969Z,34.13
2023-03-29T20:07:10.575Z,23.27
2023-03-29T20:09:38.849Z,23.67
2023-03-29T20:12:07.477Z,17.23
2023-03-29T20:14:38.012Z,15.93
2023-03-29T20:17:07.262Z,13.40
2023-03-29T20:19:36.818Z,18.75
2023-03-29T20:22:08.038Z,16.55
2023-03-29T20:24:37.116Z,17.75
2023-03-29T20:27:05.995Z,14.82
2023-03-29T20:29:34.390Z,19.13
2023-03-29T20:32:03.378Z,15.68
2023-03-29T20:34:31.668Z,13.43
2023-03-29T20:37:00.947Z,13.63
2023-03-29T20:39:29.714Z,11.70
2023-03-29T20:41:59.091Z,76.72
2023-03-29T20:44:28.512Z,34.63
2023-03-29T20:47:04.428Z,17.55
2023-03-29T20:49:40.325Z,12.50
2023-03-29T20:52:13.283Z,21.65
2023-03-29T20:54:41.845Z,19.83
2023-03-29T20:57:14.239Z,17.08
2023-03-29T20:59:44.015Z,23.15
2023-03-29T21:02:22.998Z,70.15
2023-03-29T21:04:53.007Z,25.25
2023-03-29T21:07:21.943Z,19.08
2023-03-29T21:09:50.476Z,19.13
2023-03-29T21:12:20.265Z,15.93
2023-03-29T21:14:48.940Z,16.60
2023-03-29T21:17:17.864Z,13.50
2023-03-29T21:19:46.279Z,12.40
2023-03-29T21:22:15.272Z,10.88
2023-03-29T21:24:43.536Z,33.58
2023-03-29T21:27:11.900Z,36.85
2023-03-29T21:29:40.226Z,11.82
2023-03-29T21:32:08.692Z,14.65
2023-03-29T21:34:36.719Z,12.13
2023-03-29T21:37:05.578Z,11.85
2023-03-29T21:39:33.725Z,12.65
2023-03-29T21:42:02.311Z,13.93
2023-03-29T21:44:32.574Z,18.48
2023-03-29T21:47:03.025Z,10.80
2023-03-29T21:49:32.133Z,11.35
2023-03-29T21:52:00.800Z,12.52
2023-03-29T21:54:28.880Z,8.73
2023-03-29T21:56:57.465Z,12.25
2023-03-29T21:59:25.799Z,8.55
2023-03-29T22:01:54.519Z,7.97
2023-03-29T22:04:33.509Z,9.43
2023-03-29T22:07:04.491Z,14.98
2023-03-29T22:09:35.054Z,17.23
2023-03-29T22:12:04.982Z,9.32
2023-03-29T22:14:37.538Z,8.85
2023-03-29T22:17:07.019Z,9.05
2023-03-29T22:19:39.151Z,9.07
2023-03-29T22:22:14.089Z,7.18
2023-03-29T22:24:42.876Z,7.25
2023-03-29T22:27:12.040Z,8.27
2023-03-29T22:29:40.898Z,7.50
2023-03-29T22:32:09.545Z,7.20
2023-03-29T22:34:38.029Z,6.78
2023-03-29T22:37:06.470Z,6.68
2023-03-29T22:39:36.844Z,7.35
2023-03-29T22:42:05.416Z,7.55
2023-03-29T22:44:34.324Z,8.00
2023-03-29T22:47:02.679Z,7.40
2023-03-29T22:49:31.659Z,6.75
2023-03-29T22:52:01.462Z,7.25
2023-03-29T22:54:30.329Z,7.50
2023-03-29T22:56:58.912Z,7.53
2023-03-29T22:59:27.628Z,7.68
2023-03-29T23:01:56.019Z,8.20
2023-03-29T23:04:24.594Z,7.70
2023-03-29T23:06:53.353Z,7.63
2023-03-29T23:09:22.162Z,8.25
2023-03-29T23:11:50.512Z,8.10
2023-03-29T23:14:19.106Z,7.97
2023-03-29T23:16:47.261Z,7.45
2023-03-29T23:19:15.625Z,8.30
2023-03-29T23:21:44.080Z,7.07
2023-03-29T23:24:13.539Z,7.95
2023-03-29T23:26:41.917Z,8.85
2023-03-29T23:29:10.960Z,7.30
2023-03-29T23:31:39.463Z,8.35
2023-03-29T23:34:09.211Z,8.07
2023-03-29T23:36:37.524Z,8.23
2023-03-29T23:39:08.198Z,7.50
2023-03-29T23:41:36.806Z,7.55
2023-03-29T23:44:05.742Z,7.68
2023-03-29T23:46:34.499Z,7.45
2023-03-29T23:49:03.489Z,7.80
2023-03-29T23:51:31.830Z,8.02
2023-03-29T23:54:00.887Z,8.63
2023-03-29T23:56:29.372Z,7.53
2023-03-29T23:58:57.735Z,9.15
